createdAt,value
2022-11-02T00:02:29.378Z,25.38
2022-11-02T00:05:23.846Z,24.20
2022-11-02T00:08:14.231Z,21.75
2022-11-02T00:11:03.948Z,23.38
2022-11-02T00:13:53.360Z,26.23
2022-11-02T00:16:41.960Z,24.00
2022-11-02T00:19:31.163Z,27.10
2022-11-02T00:22:18.938Z,22.95
2022-11-02T00:25:13.416Z,22.60
2022-11-02T00:28:01.088Z,29.05
2022-11-02T00:30:53.030Z,25.40
2022-11-02T00:33:43.154Z,26.73
2022-11-02T00:36:31.435Z,24.15
2022-11-02T00:39:19.056Z,23.38
2022-11-02T00:42:10.150Z,23.70
2022-11-02T00:44:58.592Z,23.73
2022-11-02T00:47:48.101Z,24.67
2022-11-02T00:50:36.096Z,27.27
2022-11-02T00:53:24.339Z,24.73
2022-11-02T00:56:13.657Z,21.02
2022-11-02T00:59:01.627Z,24.88
2022-11-02T01:01:49.808Z,23.88
2022-11-02T01:04:39.135Z,27.15
2022-11-02T01:07:28.824Z,22.48
2022-11-02T01:10:16.683Z,26.08
2022-11-02T01:13:05.056Z,22.80
2022-11-02T01:15:52.860Z,23.75
2022-11-02T01:18:41.139Z,24.73
2022-11-02T01:21:31.049Z,23.13
2022-11-02T01:24:21.791Z,26.25
2022-11-02T01:27:09.095Z,20.63
2022-11-02T01:29:57.327Z,24.05
2022-11-02T01:32:45.099Z,22.42
2022-11-02T01:35:32.883Z,23.58
2022-11-02T01:38:22.517Z,22.10
2022-11-02T01:41:13.762Z,20.17
2022-11-02T01:44:05.230Z,21.65
2022-11-02T01:46:56.367Z,25.25
2022-11-02T01:49:47.917Z,18.80
2022-11-02T01:52:39.459Z,20.38
2022-11-02T01:55:34.086Z,17.58
2022-11-02T01:58:21.812Z,18.52
2022-11-02T02:01:10.626Z,16.85
2022-11-02T02:03:59.248Z,16.48
2022-11-02T02:06:47.386Z,19.73
2022-11-02T02:09:36.152Z,15.32
2022-11-02T02:12:26.177Z,18.40
2022-11-02T02:15:14.825Z,18.13
2022-11-02T02:18:10.936Z,16.33
2022-11-02T02:21:22.426Z,18.75
2022-11-02T02:24:49.761Z,20.50
2022-11-02T02:28:03.550Z,16.80
2022-11-02T02:30:59.168Z,15.95
2022-11-02T02:33:55.284Z,17.80
2022-11-02T02:36:51.496Z,18.70
2022-11-02T02:39:47.314Z,18.55
2022-11-02T02:42:42.566Z,17.85
2022-11-02T02:45:38.437Z,17.30
2022-11-02T02:48:27.805Z,18.00
2022-11-02T02:51:27.416Z,16.45
2022-11-02T02:54:20.800Z,15.75
2022-11-02T02:57:13.528Z,17.85
2022-11-02T03:00:01.276Z,14.10
2022-11-02T03:03:04.172Z,18.13
2022-11-02T03:06:18.573Z,14.10
2022-11-02T03:09:18.232Z,16.45
2022-11-02T03:15:15.854Z,17.92
2022-11-02T03:18:12.897Z,16.65
2022-11-02T03:21:12.714Z,17.63
2022-11-02T03:24:13.158Z,15.52
2022-11-02T03:27:17.091Z,13.98
2022-11-02T03:30:11.311Z,15.93
2022-11-02T03:33:06.909Z,13.60
2022-11-02T03:36:08.122Z,15.25
2022-11-02T03:39:02.406Z,14.05
2022-11-02T03:41:52.548Z,16.27
2022-11-02T03:44:45.872Z,19.02
2022-11-02T03:47:39.426Z,18.15
2022-11-02T03:50:35.704Z,16.52
2022-11-02T03:53:30.825Z,16.20
2022-11-02T03:56:26.878Z,16.98
2022-11-02T03:59:16.035Z,16.60
2022-11-02T04:02:11.363Z,17.20
2022-11-02T04:04:59.670Z,17.33
2022-11-02T04:08:11.290Z,17.77
2022-11-02T04:11:16.716Z,18.17
2022-11-02T04:14:28.112Z,16.58
2022-11-02T04:17:34.761Z,19.02
2022-11-02T04:20:26.557Z,17.00
2022-11-02T04:23:33.822Z,16.15
2022-11-02T04:26:21.991Z,19.63
2022-11-02T04:29:11.863Z,19.35
2022-11-02T04:31:59.539Z,16.50
2022-11-02T04:34:47.476Z,15.93
2022-11-02T04:37:57.947Z,15.02
2022-11-02T04:40:47.771Z,16.20
2022-11-02T04:43:37.280Z,17.90
2022-11-02T04:46:28.425Z,16.80
2022-11-02T04:49:17.458Z,15.98
2022-11-02T04:52:10.681Z,15.95
2022-11-02T04:55:03.784Z,15.57
2022-11-02T04:57:53.383Z,16.17
2022-11-02T05:00:43.284Z,14.63
2022-11-02T05:03:32.118Z,16.95
2022-11-02T05:06:24.153Z,15.88
2022-11-02T05:09:14.375Z,13.45
2022-11-02T05:12:06.969Z,16.33
2022-11-02T05:15:02.653Z,20.80
2022-11-02T05:17:50.557Z,15.05
2022-11-02T05:20:38.801Z,16.13
2022-11-02T05:23:26.893Z,16.92
2022-11-02T05:26:14.953Z,18.88
2022-11-02T05:29:07.559Z,19.85
2022-11-02T05:31:58.048Z,16.80
2022-11-02T05:34:45.845Z,14.90
2022-11-02T05:37:34.242Z,16.10
2022-11-02T05:40:23.607Z,16.25
2022-11-02T05:43:12.107Z,16.02
2022-11-02T05:46:02.444Z,13.30
2022-11-02T05:48:51.586Z,13.95
2022-11-02T05:51:39.110Z,13.05
2022-11-02T05:54:27.022Z,15.23
2022-11-02T05:57:17.277Z,16.25
2022-11-02T06:00:06.788Z,14.82
2022-11-02T06:03:03.192Z,15.02
2022-11-02T06:05:58.114Z,15.80
2022-11-02T06:08:45.967Z,17.25
2022-11-02T06:11:33.440Z,17.35
2022-11-02T06:14:21.070Z,15.05
2022-11-02T06:17:08.800Z,19.80
2022-11-02T06:19:56.289Z,18.77
2022-11-02T06:22:45.837Z,23.08
2022-11-02T06:25:33.897Z,17.55
2022-11-02T06:28:21.539Z,19.63
2022-11-02T06:31:12.366Z,23.10
2022-11-02T06:34:00.226Z,18.95
2022-11-02T06:36:47.791Z,18.45
2022-11-02T06:42:34.161Z,20.00
2022-11-02T06:45:24.481Z,21.30
2022-11-02T06:48:14.537Z,22.08
2022-11-02T06:51:02.859Z,23.65
2022-11-02T06:53:53.593Z,21.45
2022-11-02T06:56:42.725Z,20.55
2022-11-02T06:59:31.256Z,26.35
2022-11-02T07:02:18.735Z,21.75
2022-11-02T07:05:07.066Z,18.60
2022-11-02T07:07:55.195Z,21.13
2022-11-02T07:10:45.448Z,20.83
2022-11-02T07:13:34.452Z,19.48
2022-11-02T07:16:22.000Z,24.05
2022-11-02T07:19:09.549Z,20.63
2022-11-02T07:21:57.166Z,21.42
2022-11-02T07:24:44.803Z,21.88
2022-11-02T07:27:32.725Z,19.88
2022-11-02T07:30:22.334Z,20.50
2022-11-02T07:33:10.286Z,22.02
2022-11-02T07:36:00.367Z,18.40
2022-11-02T07:38:48.253Z,23.23
2022-11-02T07:41:35.991Z,19.05
2022-11-02T07:44:23.449Z,19.10
2022-11-02T07:47:16.876Z,19.15
2022-11-02T07:50:04.912Z,17.02
2022-11-02T07:52:54.659Z,16.50
2022-11-02T07:55:42.961Z,21.58
2022-11-02T07:58:30.414Z,21.33
2022-11-02T08:01:23.755Z,16.48
2022-11-02T08:04:13.188Z,15.90
2022-11-02T08:07:00.866Z,16.92
2022-11-02T08:09:50.757Z,20.25
2022-11-02T08:12:38.236Z,15.85
2022-11-02T08:15:26.522Z,17.83
2022-11-02T08:18:16.821Z,15.45
2022-11-02T08:21:06.120Z,17.17
2022-11-02T08:23:58.525Z,16.42
2022-11-02T08:26:47.576Z,14.13
2022-11-02T08:29:37.218Z,13.52
2022-11-02T08:32:24.860Z,14.80
2022-11-02T08:35:12.559Z,12.30
2022-11-02T08:38:02.223Z,11.35
2022-11-02T08:40:50.720Z,13.55
2022-11-02T08:43:38.545Z,10.23
2022-11-02T08:46:26.114Z,10.00
2022-11-02T08:49:14.592Z,10.35
2022-11-02T08:52:02.270Z,10.13
2022-11-02T08:54:51.230Z,9.10
2022-11-02T08:57:47.190Z,10.13
2022-11-02T09:00:41.100Z,11.77
2022-11-02T09:03:28.925Z,9.80
2022-11-02T09:06:16.357Z,9.00
2022-11-02T09:09:06.102Z,9.45
2022-11-02T09:11:55.026Z,12.35
2022-11-02T09:14:42.507Z,5.88
2022-11-02T09:17:33.986Z,7.10
2022-11-02T09:20:23.587Z,7.55
2022-11-02T09:25:07.103Z,10.48
2022-11-02T09:27:58.636Z,6.85
2022-11-02T09:30:46.317Z,6.82
2022-11-02T09:33:34.477Z,8.13
2022-11-02T09:36:22.656Z,7.65
2022-11-02T09:39:10.991Z,7.22
2022-11-02T09:42:14.985Z,5.40
2022-11-02T09:45:09.812Z,8.80
2022-11-02T09:48:16.358Z,7.45
2022-11-02T09:51:10.452Z,6.13
2022-11-02T09:54:13.159Z,8.75
2022-11-02T09:57:10.515Z,7.03
2022-11-02T09:59:58.593Z,8.52
2022-11-02T10:03:01.676Z,4.85
2022-11-02T10:05:58.098Z,4.70
2022-11-02T10:08:57.526Z,5.30
2022-11-02T10:11:56.456Z,6.47
2022-11-02T10:14:56.887Z,4.78
2022-11-02T10:17:49.396Z,4.72
2022-11-02T10:20:46.105Z,6.60
2022-11-02T10:23:36.908Z,5.25
2022-11-02T10:26:28.463Z,6.53
2022-11-02T10:29:21.591Z,5.18
2022-11-02T10:32:16.591Z,6.70
2022-11-02T10:35:31.540Z,7.20
2022-11-02T10:38:41.630Z,7.13
2022-11-02T10:41:51.708Z,6.13
2022-11-02T10:45:05.307Z,6.50
2022-11-02T10:48:04.441Z,7.00
2022-11-02T10:51:02.039Z,8.07
2022-11-02T10:53:51.969Z,6.88
2022-11-02T10:56:40.793Z,6.30
2022-11-02T10:59:28.262Z,7.18
2022-11-02T11:02:17.059Z,8.95
2022-11-02T11:05:15.428Z,4.90
2022-11-02T11:08:03.637Z,8.10
2022-11-02T11:10:51.603Z,4.10
2022-11-02T11:16:50.771Z,7.22
2022-11-02T11:19:42.647Z,8.07
2022-11-02T11:22:36.564Z,6.82
2022-11-02T11:25:28.408Z,9.02
2022-11-02T11:28:26.469Z,5.97
2022-11-02T11:31:18.084Z,7.22
2022-11-02T11:34:07.022Z,9.85
2022-11-02T11:36:54.936Z,5.93
2022-11-02T11:39:51.103Z,6.35
2022-11-02T11:42:44.924Z,4.65
2022-11-02T11:45:34.215Z,4.70
2022-11-02T11:48:34.907Z,5.38
2022-11-02T11:51:39.361Z,8.02
2022-11-02T11:54:28.787Z,9.77
2022-11-02T11:57:29.697Z,10.57
2022-11-02T12:00:30.294Z,7.43
2022-11-02T12:03:17.691Z,8.10
2022-11-02T12:06:17.813Z,5.75
2022-11-02T12:09:13.946Z,5.07
2022-11-02T12:12:08.991Z,5.57
2022-11-02T12:15:12.556Z,12.02
2022-11-02T12:18:16.570Z,11.55
2022-11-02T12:21:24.997Z,5.55
2022-11-02T12:24:46.139Z,7.45
2022-11-02T12:27:47.714Z,7.95
2022-11-02T12:30:49.851Z,7.18
2022-11-02T12:33:58.636Z,9.23
2022-11-02T12:37:35.369Z,5.38
2022-11-02T12:40:27.461Z,7.32
2022-11-02T12:43:35.538Z,6.15
2022-11-02T12:46:41.257Z,8.40
2022-11-02T12:49:42.793Z,8.07
2022-11-02T12:52:46.267Z,7.07
2022-11-02T12:55:42.990Z,5.00
2022-11-02T12:58:34.810Z,6.15
2022-11-02T13:01:30.689Z,9.15
2022-11-02T13:04:26.173Z,7.90
2022-11-02T13:07:29.693Z,8.35
2022-11-02T13:10:21.751Z,5.85
2022-11-02T13:13:17.921Z,5.65
2022-11-02T13:16:08.959Z,9.55
2022-11-02T13:19:01.609Z,7.65
2022-11-02T13:21:55.381Z,7.40
2022-11-02T13:24:48.953Z,6.97
2022-11-02T13:27:47.452Z,5.45
2022-11-02T13:30:36.168Z,8.77
2022-11-02T13:33:28.416Z,10.10
2022-11-02T13:36:18.111Z,6.70
2022-11-02T13:39:11.940Z,10.90
2022-11-02T13:42:39.449Z,6.32
2022-11-02T13:46:08.448Z,10.98
2022-11-02T13:49:02.467Z,10.60
2022-11-02T13:51:57.772Z,9.73
2022-11-02T13:57:39.956Z,8.50
2022-11-02T14:00:36.384Z,8.70
2022-11-02T14:03:28.228Z,9.52
2022-11-02T14:06:21.535Z,10.57
2022-11-02T14:09:18.993Z,12.73
2022-11-02T14:12:30.563Z,11.77
2022-11-02T14:15:53.965Z,9.32
2022-11-02T14:18:41.595Z,9.00
2022-11-02T14:21:44.240Z,10.90
2022-11-02T14:25:18.810Z,8.00
2022-11-02T14:28:34.594Z,9.70
2022-11-02T14:31:59.123Z,9.27
2022-11-02T14:35:13.600Z,9.98
2022-11-02T14:38:41.737Z,8.68
2022-11-02T14:42:01.232Z,9.93
2022-11-02T14:45:23.451Z,7.43
2022-11-02T14:48:17.425Z,11.73
2022-11-02T14:51:13.659Z,11.25
2022-11-02T14:54:08.208Z,8.52
2022-11-02T14:57:12.632Z,10.20
2022-11-02T15:00:03.983Z,7.50
2022-11-02T15:02:54.082Z,8.55
2022-11-02T15:05:44.056Z,5.50
2022-11-02T15:08:38.036Z,13.45
2022-11-02T15:11:46.088Z,8.27
2022-11-02T15:14:56.671Z,8.57
2022-11-02T15:18:33.845Z,6.97
2022-11-02T15:21:30.838Z,9.27
2022-11-02T15:24:27.676Z,6.63
2022-11-02T15:27:15.272Z,6.38
2022-11-02T15:30:07.301Z,9.30
2022-11-02T15:33:01.520Z,10.85
2022-11-02T15:35:53.225Z,8.80
2022-11-02T15:38:40.875Z,8.45
2022-11-02T15:41:39.868Z,7.22
2022-11-02T15:45:26.984Z,8.05
2022-11-02T15:48:37.082Z,9.02
2022-11-02T15:51:34.144Z,7.22
2022-11-02T15:54:54.668Z,6.60
2022-11-02T15:57:48.544Z,10.30
2022-11-02T16:00:37.132Z,7.72
2022-11-02T16:03:26.650Z,11.50
2022-11-02T16:06:15.159Z,9.25
2022-11-02T16:09:05.319Z,7.65
2022-11-02T16:12:04.417Z,10.07
2022-11-02T16:14:57.889Z,7.03
2022-11-02T16:17:49.317Z,6.97
2022-11-02T16:20:40.541Z,9.60
2022-11-02T16:23:31.549Z,9.55
2022-11-02T16:26:22.886Z,10.18
2022-11-02T16:29:11.280Z,11.18
2022-11-02T16:31:59.144Z,12.82
2022-11-02T16:34:47.269Z,15.48
2022-11-02T16:37:36.695Z,9.70
2022-11-02T16:40:27.457Z,8.93
2022-11-02T16:43:16.236Z,9.52
2022-11-02T16:46:07.157Z,9.68
2022-11-02T16:49:16.671Z,10.93
2022-11-02T16:52:20.643Z,13.25
2022-11-02T16:55:42.589Z,8.77
2022-11-02T16:58:30.611Z,9.60
2022-11-02T17:01:23.942Z,10.32
2022-11-02T17:04:22.849Z,13.27
2022-11-02T17:07:20.598Z,7.80
2022-11-02T17:10:10.576Z,8.82
2022-11-02T17:13:01.056Z,11.18
2022-11-02T17:15:51.434Z,6.95
2022-11-02T17:18:39.591Z,7.72
2022-11-02T17:21:30.641Z,10.43
2022-11-02T17:24:35.418Z,8.85
2022-11-02T17:27:28.681Z,8.88
2022-11-02T17:30:49.523Z,10.07
2022-11-02T17:33:37.261Z,11.40
2022-11-02T17:36:27.086Z,9.80
2022-11-02T17:39:16.605Z,9.57
2022-11-02T17:42:22.323Z,11.50
2022-11-02T17:45:28.654Z,11.05
2022-11-02T17:48:17.487Z,13.63
2022-11-02T17:51:05.955Z,9.55
2022-11-02T17:53:53.599Z,11.00
2022-11-02T17:56:41.470Z,14.02
2022-11-02T17:59:29.130Z,8.18
2022-11-02T18:02:18.081Z,10.48
2022-11-02T18:05:21.668Z,14.98
2022-11-02T18:08:10.466Z,13.13
2022-11-02T18:11:00.539Z,12.77
2022-11-02T18:13:48.208Z,10.85
2022-11-02T18:16:35.898Z,14.57
2022-11-02T18:19:23.675Z,15.20
2022-11-02T18:22:21.019Z,14.48
2022-11-02T18:25:11.564Z,16.00
2022-11-02T18:28:00.511Z,12.95
2022-11-02T18:30:48.703Z,14.05
2022-11-02T18:33:36.681Z,10.98
2022-11-02T18:36:27.886Z,11.80
2022-11-02T18:39:17.060Z,12.35
2022-11-02T18:42:06.261Z,12.55
2022-11-02T18:44:53.763Z,14.40
2022-11-02T18:47:42.090Z,13.27
2022-11-02T18:50:29.938Z,13.13
2022-11-02T18:53:17.596Z,13.15
2022-11-02T18:56:08.796Z,12.57
2022-11-02T18:58:57.147Z,15.38
2022-11-02T19:01:45.233Z,13.60
2022-11-02T19:04:33.158Z,12.93
2022-11-02T19:07:38.277Z,13.45
2022-11-02T19:10:25.830Z,12.75
2022-11-02T19:13:15.222Z,12.20
2022-11-02T19:16:02.890Z,11.40
2022-11-02T19:18:51.961Z,13.50
2022-11-02T19:21:39.845Z,12.68
2022-11-02T19:24:27.318Z,14.30
2022-11-02T19:27:18.179Z,14.10
2022-11-02T19:30:09.404Z,11.93
2022-11-02T19:32:58.431Z,14.32
2022-11-02T19:36:00.250Z,12.50
2022-11-02T19:38:50.765Z,12.07
2022-11-02T19:41:40.054Z,13.07
2022-11-02T19:44:27.897Z,19.02
2022-11-02T19:47:17.141Z,11.13
2022-11-02T19:50:07.768Z,11.82
2022-11-02T19:52:55.614Z,9.43
2022-11-02T19:55:52.760Z,15.07
2022-11-02T19:58:41.704Z,10.95
2022-11-02T20:01:31.940Z,11.15
2022-11-02T20:04:20.867Z,13.02
2022-11-02T20:07:08.381Z,16.08
2022-11-02T20:09:58.767Z,12.63
2022-11-02T20:12:47.267Z,13.27
2022-11-02T20:15:39.531Z,13.18
2022-11-02T20:18:28.219Z,16.23
2022-11-02T20:21:20.301Z,11.52
2022-11-02T20:24:09.098Z,15.48
2022-11-02T20:27:02.794Z,13.88
2022-11-02T20:29:51.199Z,13.25
2022-11-02T20:32:38.809Z,12.52
2022-11-02T20:35:26.655Z,12.63
2022-11-02T20:38:16.102Z,16.52
2022-11-02T20:41:11.914Z,13.70
2022-11-02T20:43:59.909Z,11.90
2022-11-02T20:46:52.720Z,13.95
2022-11-02T20:49:50.528Z,11.60
2022-11-02T20:52:39.212Z,13.18
2022-11-02T20:55:31.289Z,13.50
2022-11-02T20:58:20.355Z,14.68
2022-11-02T21:01:08.293Z,11.40
2022-11-02T21:03:55.595Z,13.50
2022-11-02T21:06:43.331Z,13.00
2022-11-02T21:09:31.317Z,14.40
2022-11-02T21:12:37.893Z,15.32
2022-11-02T21:15:25.590Z,10.35
2022-11-02T21:18:13.827Z,14.18
2022-11-02T21:21:09.394Z,12.45
2022-11-02T21:23:57.569Z,15.13
2022-11-02T21:26:45.279Z,12.80
2022-11-02T21:29:34.280Z,9.98
2022-11-02T21:32:21.669Z,9.27
2022-11-02T21:35:10.635Z,13.55
2022-11-02T21:38:02.517Z,10.20
2022-11-02T21:40:59.963Z,12.02
2022-11-02T21:43:47.641Z,14.98
2022-11-02T21:46:37.024Z,10.38
2022-11-02T21:49:24.765Z,9.15
2022-11-02T21:52:12.553Z,16.75
2022-11-02T21:55:00.278Z,11.77
2022-11-02T21:57:50.986Z,10.50
2022-11-02T22:00:56.325Z,13.30
2022-11-02T22:06:33.454Z,10.35
2022-11-02T22:09:21.159Z,11.68
2022-11-02T22:12:31.859Z,12.15
2022-11-02T22:15:19.748Z,12.70
2022-11-02T22:18:07.664Z,11.73
2022-11-02T22:20:58.468Z,15.68
2022-11-02T22:23:46.617Z,12.55
2022-11-02T22:26:36.156Z,17.38
2022-11-02T22:29:23.700Z,10.93
2022-11-02T22:32:11.471Z,12.48
2022-11-02T22:34:59.265Z,11.73
2022-11-02T22:38:05.596Z,14.18
2022-11-02T22:40:59.711Z,11.77
2022-11-02T22:43:47.932Z,13.70
2022-11-02T22:46:37.887Z,11.13
2022-11-02T22:49:25.557Z,12.00
2022-11-02T22:52:13.210Z,15.05
2022-11-02T22:55:02.324Z,12.77
2022-11-02T22:57:49.702Z,12.85
2022-11-02T23:00:37.406Z,13.23
2022-11-02T23:03:25.712Z,14.20
2022-11-02T23:06:13.809Z,12.05
2022-11-02T23:09:03.690Z,11.00
2022-11-02T23:11:57.798Z,11.38
2022-11-02T23:14:45.145Z,10.10
2022-11-02T23:17:32.705Z,12.10
2022-11-02T23:20:20.125Z,11.50
2022-11-02T23:23:39.956Z,11.57
2022-11-02T23:26:27.306Z,10.10
2022-11-02T23:29:35.588Z,11.65
2022-11-02T23:32:29.151Z,15.55
2022-11-02T23:35:34.247Z,10.13
2022-11-02T23:41:11.029Z,12.65
2022-11-02T23:44:12.793Z,12.00
2022-11-02T23:47:01.739Z,11.80
2022-11-02T23:49:49.084Z,10.73
2022-11-02T23:52:53.723Z,11.63
2022-11-02T23:55:59.053Z,11.02
